Time;durP1;ratioP1;P1;durP2;ratioP2;P2;SDS_P1;SDS_P2;PMS_P1;PMS_P2;Temp;Humidity;BMP_temperature;BMP_pressure;BME280_temperature;BME280_humidity;BME280_pressure;Samples;Min_cycle;Max_cycle;Signal;HPM_P1;HPM_P2
2023/08/12 00:03:28;;;;;;;13.03;10.00;;;12.00;99.90;;;;;;4688726;29;20489;-85
2023/08/12 00:33:29;;;;;;;13.30;9.40;;;11.70;99.90;;;;;;4624308;30;20640;-86
2023/08/12 01:08:57;;;;;;;12.43;9.77;;;11.50;99.90;;;;;;4669477;29;20558;-86
2023/08/12 01:29:55;;;;;;;15.50;10.77;;;11.10;99.90;;;;;;4713247;29;20263;-85
2023/08/12 01:54:41;;;;;;;15.83;10.47;;;11.10;99.90;;;;;;4705608;29;20761;-83
2023/08/12 02:20:29;;;;;;;14.70;10.03;;;10.90;99.90;;;;;;4640444;30;20208;-83
2023/08/12 02:30:34;;;;;;;11.77;9.97;;;10.90;99.90;;;;;;5845301;23;20229;-84
2023/08/12 03:11:19;;;;;;;14.07;10.07;;;10.60;99.90;;;;;;4950894;28;20257;-84
2023/08/12 03:36:38;;;;;;;14.23;10.00;;;10.80;99.90;;;;;;4907228;28;20222;-83
2023/08/12 04:01:35;;;;;;;13.10;9.93;;;11.20;99.90;;;;;;4706447;29;21149;-84
2023/08/12 04:42:33;;;;;;;14.87;11.27;;;13.00;99.90;;;;;;4584313;30;20215;-83
2023/08/12 05:02:25;;;;;;;18.97;15.40;;;14.30;99.90;;;;;;4663674;29;20568;-84
2023/08/12 05:38:19;;;;;;;11.10;8.60;;;16.40;98.80;;;;;;4926752;28;20247;-83
2023/08/12 06:08:05;;;;;;;10.33;7.30;;;18.30;91.30;;;;;;4661353;29;20222;-86
2023/08/12 06:49:05;;;;;;;5.78;4.72;;;20.30;84.20;;;;;;4734304;29;20845;-86
2023/08/12 07:14:18;;;;;;;3.95;3.63;;;21.90;76.70;;;;;;4688717;29;20657;-85
2023/08/12 07:39:36;;;;;;;2.40;1.98;;;22.80;54.90;;;;;;4697273;29;21065;-84
2023/08/12 08:00:11;;;;;;;3.88;2.08;;;23.00;55.30;;;;;;4596411;30;20254;-84
2023/08/12 08:45:40;;;;;;;2.58;1.83;;;23.40;50.30;;;;;;4572584;30;20828;-83
2023/08/12 09:01:07;;;;;;;4.20;1.90;;;23.80;49.00;;;;;;4678302;29;20279;-82
2023/08/12 09:30:55;;;;;;;3.38;2.40;;;23.70;49.10;;;;;;4592086;30;20896;-86
2023/08/12 09:51:35;;;;;;;4.40;2.10;;;23.40;48.40;;;;;;4581218;30;20542;-82
2023/08/12 10:11:43;;;;;;;3.42;2.10;;;23.80;49.10;;;;;;4713634;29;20935;-84
2023/08/12 10:37:22;;;;;;;4.18;2.08;;;23.50;48.70;;;;;;4743027;29;20426;-84
2023/08/12 11:12:53;;;;;;;3.85;2.20;;;23.70;49.20;;;;;;4786020;29;20233;-83
2023/08/12 11:38:12;;;;;;;3.28;2.50;;;24.50;48.30;;;;;;4804673;29;20223;-82
2023/08/12 12:13:53;;;;;;;4.15;2.10;;;24.60;47.90;;;;;;4685781;29;20219;-82
2023/08/12 13:04:34;;;;;;;4.78;2.03;;;26.40;48.10;;;;;;4702471;29;20229;-86
2023/08/12 13:29:36;;;;;;;3.47;2.42;;;26.80;48.30;;;;;;4691301;29;20620;-84
2023/08/12 14:00:09;;;;;;;4.65;2.20;;;28.30;47.90;;;;;;4612273;29;21222;-84
2023/08/12 14:35:43;;;;;;;3.90;2.20;;;31.80;46.50;;;;;;4755294;29;20354;-82
2023/08/12 15:06:22;;;;;;;3.13;2.25;;;35.00;45.30;;;;;;4790793;29;20729;-84
2023/08/12 15:10:41;;;;;;;2.55;2.15;;;34.20;44.10;;;;;;4773870;29;21348;-85
2023/08/12 15:36:38;;;;;;;3.55;2.10;;;33.50;43.90;;;;;;4725414;29;20271;-84
2023/08/12 16:06:29;;;;;;;3.90;2.65;;;28.70;43.70;;;;;;4731895;29;20654;-84
2023/08/12 16:27:28;;;;;;;6.50;3.05;;;25.80;45.80;;;;;;4752765;29;20318;-84
2023/08/12 16:57:46;;;;;;;3.45;2.80;;;24.00;49.80;;;;;;4701274;29;20243;-83
2023/08/12 17:23:15;;;;;;;5.07;2.72;;;22.30;55.90;;;;;;4696145;29;20245;-83
2023/08/12 18:18:33;;;;;;;7.40;3.73;;;19.80;89.80;;;;;;4713492;29;20654;-83
2023/08/12 18:44:13;;;;;;;7.87;4.50;;;19.10;93.70;;;;;;4629635;30;20295;-83
2023/08/12 19:24:54;;;;;;;14.40;8.07;;;17.80;99.90;;;;;;4881680;28;20206;-85
2023/08/12 19:49:39;;;;;;;12.63;7.83;;;17.40;99.90;;;;;;4724330;29;20512;-84
2023/08/12 20:05:15;;;;;;;9.97;8.20;;;17.10;99.90;;;;;;4617779;30;20669;-85
2023/08/12 20:25:43;;;;;;;11.23;8.23;;;16.80;99.90;;;;;;4664211;29;20253;-85
2023/08/12 21:31:42;;;;;;;14.67;10.27;;;15.80;99.90;;;;;;4835646;28;20241;-85
2023/08/12 22:01:25;;;;;;;15.10;11.67;;;15.30;99.90;;;;;;4627417;30;20786;-83
2023/08/12 22:21:43;;;;;;;17.00;12.00;;;15.00;99.90;;;;;;4474506;30;20220;-83
2023/08/12 22:47:34;;;;;;;16.40;13.07;;;14.80;99.90;;;;;;4604704;30;20492;-82
2023/08/12 23:47:57;;;;;;;17.63;12.00;;;14.30;99.90;;;;;;4496491;30;20552;-85
